This is the latest recevied weather packets stored in our database for station/object 9W2SSS-1. If no packets are shown the sender has not sent any weather packets the latest 1 day(s).
| Time | Temp. | Humidity | Pressure | Rain* | Wind** | Luminosity | Snow |
|---|---|---|---|---|---|---|---|
| 1778084610 | 28.89° C | 69% | 1008.7 hPa | - | - | - | - |
| 1778083410 | 28.33° C | 67% | 1008.9 hPa | - | - | - | - |
| 1778082210 | 28.33° C | 62% | 1008.7 hPa | - | - | - | - |
| 1778081010 | 28.89° C | 66% | 1008.8 hPa | - | - | - | - |
| 1778079810 | 29.44° C | 69% | 1008.9 hPa | - | - | - | - |
| 1778066609 | 30.56° C | 66% | 1006.4 hPa | - | - | - | - |
| 1778065409 | 31.11° C | 66% | 1006.3 hPa | - | - | - | - |
| 1778063012 | 31.11° C | 65% | 1005.7 hPa | - | - | - | - |
| 1778052210 | 31.67° C | 63% | 1006.7 hPa | - | - | - | - |
| 1778049810 | 32.22° C | 65% | 1007 hPa | - | - | - | - |
| 1778048610 | 32.78° C | 59% | 1007.2 hPa | - | - | - | - |
| 1778047410 | 33.33° C | 58% | 1007.1 hPa | - | - | - | - |
| 1778046210 | 33.89° C | 57% | 1007.1 hPa | - | - | - | - |
| 1778045010 | 33.89° C | 54% | 1007.4 hPa | - | - | - | - |
| 1778043810 | 35° C | 52% | 1007.4 hPa | - | - | - | - |
| 1778042610 | 35° C | 52% | 1007.7 hPa | - | - | - | - |
| 1778040209 | 36.67° C | 46% | 1008 hPa | - | - | - | - |
| 1778037809 | 38.89° C | 42% | 1008.8 hPa | - | - | - | - |
| 1778036609 | 37.22° C | 48% | 1008.8 hPa | - | - | - | - |
| 1778035409 | 37.22° C | 47% | 1008.8 hPa | - | - | - | - |
| 1778034209 | 37.22° C | 48% | 1009 hPa | - | - | - | - |
| 1778033009 | 39.44° C | 42% | 1009 hPa | - | - | - | - |
| 1778031809 | 38.89° C | 43% | 1008.9 hPa | - | - | - | - |
| 1778030609 | 38.33° C | 44% | 1008.8 hPa | - | - | - | - |
| 1778029409 | 37.22° C | 47% | 1008.7 hPa | - | - | - | - |
* Rain since midnight (hover to see other rain measurements)
** Current wind speed in m/s (hover to see current wind gust speed)